Time;durP1;ratioP1;P1;durP2;ratioP2;P2;SDS_P1;SDS_P2;PMS_P1;PMS_P2;Temp;Humidity;BMP_temperature;BMP_pressure;BME280_temperature;BME280_humidity;BME280_pressure;Samples;Min_cycle;Max_cycle;Signal;HPM_P1;HPM_P2
2022/09/23 04:16:10;;;;;;;2.63;1.65;;;;;;;6.06;100.00;100388.13;5593691;23;20413;-69
2022/09/23 04:18:36;;;;;;;5.57;2.58;;;;;;;6.09;100.00;100379.91;4972556;28;20048;-69
2022/09/23 04:21:01;;;;;;;2.85;2.03;;;;;;;6.08;100.00;100380.06;4970986;28;20058;-69
2022/09/23 04:23:26;;;;;;;2.13;1.45;;;;;;;5.92;100.00;100375.31;4972718;28;20042;-69
2022/09/23 04:25:52;;;;;;;2.60;1.80;;;;;;;5.92;100.00;100381.44;4971174;28;20039;-69
2022/09/23 04:28:18;;;;;;;2.78;1.85;;;;;;;5.92;100.00;100377.97;4972585;28;20474;-68
2022/09/23 04:30:45;;;;;;;2.35;1.60;;;;;;;5.89;100.00;100379.06;4972647;28;20070;-69
2022/09/23 04:33:11;;;;;;;1.67;1.58;;;;;;;5.89;100.00;100376.41;4972602;28;20531;-69
2022/09/23 04:35:38;;;;;;;3.00;1.63;;;;;;;5.87;100.00;100390.78;4972333;28;20409;-69
2022/09/23 04:38:07;;;;;;;2.22;1.35;;;;;;;5.90;100.00;100377.25;4972475;28;20050;-68
2022/09/23 04:40:32;;;;;;;4.13;2.05;;;;;;;5.95;100.00;100383.00;4954784;28;20078;-70
2022/09/23 04:42:58;;;;;;;1.33;1.13;;;;;;;5.84;100.00;100376.00;4972704;28;20065;-70
2022/09/23 04:45:23;;;;;;;1.92;1.40;;;;;;;5.84;100.00;100383.94;4972424;28;20144;-69
2022/09/23 04:47:49;;;;;;;2.05;1.30;;;;;;;5.88;100.00;100384.50;4972296;28;20035;-68
2022/09/23 04:50:14;;;;;;;2.35;1.80;;;;;;;5.86;100.00;100375.84;4972071;28;20141;-69
2022/09/23 04:52:41;;;;;;;1.98;1.30;;;;;;;5.84;100.00;100383.09;4972353;28;20441;-70
2022/09/23 04:55:07;;;;;;;3.00;1.48;;;;;;;5.78;100.00;100376.56;4972195;28;20035;-72
2022/09/23 04:57:33;;;;;;;1.63;1.45;;;;;;;5.76;100.00;100388.25;4972167;28;20121;-71
2022/09/23 04:59:59;;;;;;;2.05;1.48;;;;;;;5.79;100.00;100394.06;4972085;28;20522;-71
2022/09/23 05:02:26;;;;;;;1.95;1.38;;;;;;;5.70;100.00;100393.13;4971996;28;20557;-71
2022/09/23 05:04:51;;;;;;;2.10;1.50;;;;;;;5.76;100.00;100393.53;4972236;28;20034;-70
2022/09/23 05:07:17;;;;;;;2.35;1.40;;;;;;;5.73;100.00;100392.00;4972439;28;20462;-71
2022/09/23 05:09:43;;;;;;;1.48;1.30;;;;;;;5.77;100.00;100392.56;4976061;28;20042;-71
2022/09/23 05:12:09;;;;;;;1.83;1.27;;;;;;;5.78;100.00;100394.22;4974358;28;20043;-70
2022/09/23 05:14:34;;;;;;;1.40;1.20;;;;;;;5.85;100.00;100397.97;4976019;28;20108;-72
2022/09/23 05:17:00;;;;;;;3.15;1.92;;;;;;;5.89;100.00;100391.44;4975607;28;20498;-70
2022/09/23 05:19:25;;;;;;;2.88;1.50;;;;;;;5.86;100.00;100397.00;4974605;28;20486;-70
2022/09/23 05:21:51;;;;;;;2.42;1.55;;;;;;;5.85;100.00;100397.97;4975610;28;20041;-72
2022/09/23 05:24:16;;;;;;;2.55;1.40;;;;;;;5.83;100.00;100394.66;4975771;28;20057;-70
2022/09/23 05:26:42;;;;;;;2.10;1.67;;;;;;;5.83;100.00;100399.94;4976036;28;20045;-69
2022/09/23 05:29:07;;;;;;;1.55;1.27;;;;;;;5.77;100.00;100403.97;4975853;28;20043;-70
2022/09/23 05:31:33;;;;;;;1.45;1.27;;;;;;;5.83;100.00;100407.88;4975668;28;20062;-70
2022/09/23 05:34:04;;;;;;;2.40;1.60;;;;;;;5.86;100.00;100403.13;4975778;28;20035;-70
2022/09/23 05:36:31;;;;;;;2.65;1.60;;;;;;;5.89;100.00;100410.78;4975465;28;20478;-71
2022/09/23 05:38:57;;;;;;;2.08;1.50;;;;;;;5.91;100.00;100408.03;4975698;28;20034;-70
2022/09/23 05:41:24;;;;;;;1.60;1.23;;;;;;;5.94;100.00;100402.47;4975248;28;20450;-70
2022/09/23 05:43:50;;;;;;;1.52;1.42;;;;;;;5.99;100.00;100410.81;4975553;28;20034;-72
2022/09/23 05:46:25;;;;;;;2.45;1.35;;;;;;;5.98;100.00;100409.97;4975484;28;20097;-70
2022/09/23 05:48:50;;;;;;;1.80;1.58;;;;;;;6.10;100.00;100409.84;4975523;28;20488;-71
2022/09/23 05:51:18;;;;;;;3.15;1.67;;;;;;;6.17;100.00;100414.41;4975024;28;20045;-70
2022/09/23 05:53:44;;;;;;;;;;;;;;;6.25;100.00;100419.00;4975925;28;20098;-70
2022/09/23 05:56:15;;;;;;;2.15;1.80;;;;;;;6.33;100.00;100415.69;4975198;28;19922;-70
2022/09/23 05:58:40;;;;;;;2.60;1.48;;;;;;;6.38;100.00;100410.78;4975361;28;20490;-71
2022/09/23 06:01:14;;;;;;;1.52;1.30;;;;;;;6.45;100.00;100412.69;4975048;28;20030;-71
2022/09/23 06:03:40;;;;;;;1.80;1.40;;;;;;;6.52;100.00;100410.34;4975218;28;20552;-71
2022/09/23 06:06:06;;;;;;;2.33;1.40;;;;;;;6.64;100.00;100416.28;4975097;28;20038;-71
2022/09/23 06:08:36;;;;;;;2.92;1.38;;;;;;;6.77;100.00;100414.97;4975141;28;20421;-72
2022/09/23 06:11:06;;;;;;;1.95;1.23;;;;;;;6.86;100.00;100415.13;4973589;28;20047;-72
2022/09/23 06:13:31;;;;;;;1.65;1.55;;;;;;;6.94;100.00;100407.28;4973903;28;20454;-70
2022/09/23 06:15:57;;;;;;;2.13;1.65;;;;;;;7.03;100.00;100416.97;4974812;28;20038;-70
2022/09/23 06:18:22;;;;;;;1.85;1.42;;;;;;;7.10;100.00;100417.22;4974868;28;20043;-70
2022/09/23 06:20:48;;;;;;;1.95;1.42;;;;;;;7.20;100.00;100412.72;4973793;28;20428;-71
2022/09/23 06:23:13;;;;;;;2.67;1.83;;;;;;;7.25;100.00;100410.47;4974832;28;20100;-70
2022/09/23 06:25:38;;;;;;;2.88;1.60;;;;;;;7.35;100.00;100412.06;4974754;28;20362;-65
2022/09/23 06:28:07;;;;;;;2.05;1.85;;;;;;;7.43;100.00;100413.16;4974636;28;20042;-60
2022/09/23 06:30:33;;;;;;;2.03;1.60;;;;;;;7.58;100.00;100409.03;4974392;28;20425;-59
2022/09/23 06:32:59;;;;;;;2.78;1.92;;;;;;;7.65;100.00;100407.44;4974556;28;20082;-59
2022/09/23 06:35:26;;;;;;;1.95;1.73;;;;;;;7.76;100.00;100398.41;4974484;28;20148;-60
2022/09/23 06:37:54;;;;;;;4.38;1.60;;;;;;;7.84;100.00;100406.47;4974599;28;20536;-59
2022/09/23 06:40:23;;;;;;;1.55;1.42;;;;;;;7.92;100.00;100403.88;4974224;28;20043;-59
2022/09/23 06:42:59;;;;;;;1.50;1.40;;;;;;;8.02;100.00;100404.63;4973213;28;20117;-59
2022/09/23 06:45:25;;;;;;;2.50;1.77;;;;;;;8.12;100.00;100396.56;4971787;28;20490;-47
2022/09/23 06:47:55;;;;;;;2.55;1.92;;;;;;;8.21;100.00;100402.78;4972372;28;20031;-49
2022/09/23 06:50:22;;;;;;;2.67;1.75;;;;;;;8.26;100.00;100393.38;4973262;28;20186;-49
2022/09/23 06:52:54;;;;;;;3.80;1.90;;;;;;;8.37;100.00;100397.63;4974273;28;20050;-58
2022/09/23 06:55:22;;;;;;;2.83;1.80;;;;;;;8.42;100.00;100401.50;4988634;28;20285;-56
2022/09/23 06:57:47;;;;;;;3.22;2.17;;;;;;;8.53;100.00;100403.03;4973957;28;20050;-58
2022/09/23 07:00:13;;;;;;;2.70;1.77;;;;;;;8.57;100.00;100395.59;4973017;28;20046;-57
2022/09/23 07:02:40;;;;;;;2.40;1.83;;;;;;;8.68;100.00;100405.97;4974078;28;20109;-57
2022/09/23 07:05:07;;;;;;;5.15;2.10;;;;;;;8.76;100.00;100407.84;4973630;28;20586;-59
2022/09/23 07:07:34;;;;;;;2.72;2.15;;;;;;;8.84;100.00;100416.69;4972464;28;20129;-56
2022/09/23 07:09:59;;;;;;;2.53;1.83;;;;;;;8.89;100.00;100408.25;4973448;28;20058;-56
2022/09/23 07:12:25;;;;;;;2.90;2.22;;;;;;;8.94;100.00;100412.09;4973291;28;20030;-59
2022/09/23 07:14:50;;;;;;;3.63;2.08;;;;;;;9.02;100.00;100418.44;4973597;28;20490;-54
2022/09/23 07:17:15;;;;;;;2.97;2.13;;;;;;;9.08;100.00;100418.63;4973209;28;20057;-53
2022/09/23 07:19:41;;;;;;;3.60;1.77;;;;;;;9.11;100.00;100415.63;4973516;28;20081;-57
2022/09/23 07:22:06;;;;;;;3.30;2.17;;;;;;;9.19;99.70;100417.50;4972830;28;20042;-60
2022/09/23 07:24:33;;;;;;;2.78;2.00;;;;;;;9.27;99.02;100416.72;4973723;28;20070;-60
2022/09/23 07:26:58;;;;;;;3.78;2.20;;;;;;;9.32;100.00;100414.38;4973485;28;20043;-60
2022/09/23 07:29:23;;;;;;;2.92;2.20;;;;;;;9.38;100.00;100413.75;4973593;28;20041;-57
2022/09/23 07:31:49;;;;;;;3.47;2.20;;;;;;;9.46;100.00;100411.97;4973178;28;20391;-56
2022/09/23 07:34:14;;;;;;;2.55;2.15;;;;;;;9.50;97.67;100421.25;4973520;28;20081;-57
2022/09/23 07:36:40;;;;;;;2.80;2.00;;;;;;;9.54;96.12;100419.13;4973264;28;20038;-60
2022/09/23 07:39:07;;;;;;;2.33;2.03;;;;;;;9.61;96.31;100411.34;4973319;28;20097;-60
2022/09/23 07:41:33;;;;;;;2.88;2.10;;;;;;;9.70;98.04;100421.81;4972947;28;20043;-59
2022/09/23 07:44:00;;;;;;;3.70;2.50;;;;;;;9.74;94.60;100417.00;4973389;28;20035;-57
2022/09/23 07:46:31;;;;;;;3.15;2.22;;;;;;;9.83;94.48;100429.31;4973386;28;20634;-55
2022/09/23 07:48:57;;;;;;;4.07;2.30;;;;;;;9.90;94.34;100432.97;4973389;28;20113;-57
2022/09/23 07:51:26;;;;;;;3.40;2.42;;;;;;;10.01;94.81;100437.16;4973010;28;20152;-56
2022/09/23 07:53:53;;;;;;;3.33;2.47;;;;;;;10.13;94.09;100429.69;4973394;28;20112;-54
2022/09/23 07:56:20;;;;;;;3.03;2.07;;;;;;;10.22;93.44;100442.00;4972941;28;20066;-56
2022/09/23 07:59:08;;;;;;;2.42;2.03;;;;;;;10.30;92.49;100440.22;4973050;28;20054;-56
2022/09/23 08:01:35;;;;;;;3.40;2.65;;;;;;;10.42;92.75;100446.00;4972498;28;20061;-53
2022/09/23 08:04:22;;;;;;;4.72;2.75;;;;;;;10.52;90.85;100438.69;4973327;28;20049;-53
2022/09/23 08:06:53;;;;;;;3.97;2.55;;;;;;;10.62;90.83;100443.00;4973116;28;20038;-56
2022/09/23 08:09:22;;;;;;;7.72;3.45;;;;;;;10.72;90.44;100441.00;4972926;28;20035;-53
2022/09/23 08:11:49;;;;;;;5.40;2.92;;;;;;;10.78;90.69;100433.16;4972806;28;20394;-60
2022/09/23 08:14:16;;;;;;;6.45;2.75;;;;;;;10.90;90.41;100436.31;4972863;28;20034;-55
2022/09/23 08:16:44;;;;;;;4.28;3.05;;;;;;;10.98;90.18;100440.78;4972631;28;20039;-57
2022/09/23 08:19:10;;;;;;;3.33;2.95;;;;;;;11.06;90.41;100436.25;4972785;28;20058;-56
2022/09/23 08:21:37;;;;;;;6.38;2.90;;;;;;;11.14;89.65;100443.38;4972524;28;20038;-55
2022/09/23 08:24:03;;;;;;;;;;;;;;;11.22;90.02;100450.53;4973168;28;20042;-59
2022/09/23 08:26:29;;;;;;;4.10;2.80;;;;;;;11.32;89.79;100438.63;4972610;28;20059;-59
2022/09/23 08:28:55;;;;;;;3.72;2.80;;;;;;;11.38;90.15;100447.78;4972706;28;20125;-60
2022/09/23 08:31:21;;;;;;;2.92;2.38;;;;;;;11.50;88.02;100449.06;4972587;28;20134;-60
2022/09/23 08:33:47;;;;;;;7.45;3.25;;;;;;;11.60;89.89;100451.50;4972922;28;20394;-60
2022/09/23 08:36:12;;;;;;;6.25;3.55;;;;;;;11.70;90.00;100446.78;4972487;28;20037;-61
2022/09/23 08:38:38;;;;;;;5.03;3.05;;;;;;;11.82;88.59;100444.59;4972579;28;20050;-57
2022/09/23 08:41:22;;;;;;;4.82;2.78;;;;;;;11.91;87.00;100438.19;4972274;28;20437;-52
2022/09/23 08:43:55;;;;;;;3.65;2.55;;;;;;;12.12;85.04;100442.88;4977958;28;20034;-56
2022/09/23 08:46:30;;;;;;;5.20;2.67;;;;;;;12.18;84.37;100432.31;4978974;28;20046;-58
2022/09/23 08:48:59;;;;;;;9.43;2.90;;;;;;;12.28;84.62;100439.25;4979043;28;20043;-59
2022/09/23 08:51:32;;;;;;;6.10;3.40;;;;;;;12.40;84.19;100438.66;4978552;28;20035;-56
2022/09/23 08:53:58;;;;;;;4.57;3.05;;;;;;;12.53;84.14;100443.38;4979008;28;20041;-60
2022/09/23 08:56:24;;;;;;;3.65;2.92;;;;;;;12.55;83.06;100440.53;4978750;28;20038;-57
2022/09/23 08:59:12;;;;;;;3.45;2.47;;;;;;;12.76;82.55;100436.13;4978869;28;20580;-57
2022/09/23 09:01:48;;;;;;;3.65;2.42;;;;;;;12.79;81.31;100431.44;4978590;28;20035;-59
2022/09/23 09:04:39;;;;;;;4.72;2.63;;;;;;;13.02;81.79;100433.00;4978822;28;20039;-58
2022/09/23 09:07:14;;;;;;;4.28;2.55;;;;;;;13.08;81.52;100431.44;4978796;28;20030;-58
2022/09/23 09:09:44;;;;;;;3.22;2.10;;;;;;;13.21;80.89;100425.47;4978703;28;20038;-56
2022/09/23 09:12:19;;;;;;;2.90;2.13;;;;;;;13.30;79.28;100419.00;4978565;28;20062;-55
2022/09/23 09:14:56;;;;;;;7.28;3.00;;;;;;;13.66;75.89;100424.38;4978902;28;20125;-56
2022/09/23 09:17:23;;;;;;;3.13;2.38;;;;;;;13.66;75.55;100423.53;4978535;28;20031;-56
2022/09/23 09:20:03;;;;;;;3.50;2.30;;;;;;;13.67;75.57;100417.16;4978791;28;20053;-60
2022/09/23 09:22:58;;;;;;;4.53;2.50;;;;;;;13.95;76.29;100412.72;4977278;28;20054;-56
2022/09/23 09:25:43;;;;;;;3.60;2.50;;;;;;;14.19;73.00;100408.00;4978517;28;20039;-53
2022/09/23 09:28:23;;;;;;;3.67;2.50;;;;;;;14.35;73.58;100408.56;4978722;28;20042;-52
2022/09/23 09:31:23;;;;;;;3.55;2.10;;;;;;;14.55;74.89;100408.75;4978326;28;20170;-56
2022/09/23 09:33:56;;;;;;;5.38;2.55;;;;;;;14.96;74.28;100404.47;4978628;28;20118;-55
2022/09/23 09:36:34;;;;;;;3.63;2.22;;;;;;;15.23;72.44;100400.06;4978420;28;20033;-56
2022/09/23 09:39:00;;;;;;;2.97;2.00;;;;;;;15.59;72.29;100400.63;4977388;28;20043;-55
2022/09/23 09:41:30;;;;;;;3.42;2.65;;;;;;;15.54;68.53;100402.25;4978179;28;20129;-56
2022/09/23 09:43:58;;;;;;;4.32;2.22;;;;;;;15.80;70.86;100396.97;4978423;28;20042;-52
2022/09/23 09:46:32;;;;;;;;;;;;;;;15.89;69.90;100395.75;4978843;28;20456;-56
2022/09/23 09:49:02;;;;;;;2.78;2.30;;;;;;;15.97;67.21;100383.97;4978430;28;19937;-55
2022/09/23 09:51:28;;;;;;;4.63;2.28;;;;;;;16.37;67.84;100384.00;4978122;28;20062;-55
2022/09/23 09:54:15;;;;;;;3.08;2.30;;;;;;;16.66;66.41;100383.53;4976583;28;20042;-53
2022/09/23 09:56:43;;;;;;;5.18;2.25;;;;;;;17.31;62.87;100379.03;4974084;28;20059;-57
2022/09/23 09:59:15;;;;;;;2.63;1.98;;;;;;;17.56;60.76;100376.44;4975325;28;20054;-56
2022/09/23 10:01:41;;;;;;;2.83;2.33;;;;;;;18.35;62.51;100372.38;4975058;28;20490;-59
2022/09/23 10:04:22;;;;;;;4.05;2.10;;;;;;;18.44;57.19;100364.81;4975462;28;20041;-57
2022/09/23 10:07:08;;;;;;;1.58;1.40;;;;;;;19.13;57.38;100370.97;4975044;28;20458;-56
2022/09/23 10:09:36;;;;;;;2.15;1.75;;;;;;;19.95;54.53;100365.91;4975029;28;20043;-55
2022/09/23 10:12:17;;;;;;;2.10;1.70;;;;;;;20.56;51.07;100380.94;4974773;28;20031;-57
2022/09/23 10:14:44;;;;;;;4.28;1.92;;;;;;;20.62;49.93;100368.38;4974977;28;20043;-58
2022/09/23 10:17:31;;;;;;;4.80;2.28;;;;;;;21.03;49.21;100361.94;4974821;28;20039;-57
2022/09/23 10:20:00;;;;;;;4.95;2.17;;;;;;;21.56;49.32;100358.97;4974761;28;20410;-58
2022/09/23 10:22:31;;;;;;;2.22;1.80;;;;;;;21.64;47.66;100358.56;4974777;28;20177;-58
2022/09/23 10:25:02;;;;;;;2.45;1.98;;;;;;;21.82;46.87;100354.81;4974869;28;20038;-58
2022/09/23 10:27:34;;;;;;;1.88;1.63;;;;;;;21.86;46.85;100355.97;4974674;28;20405;-55
2022/09/23 10:30:20;;;;;;;3.38;1.90;;;;;;;22.33;45.58;100342.13;4974695;28;20045;-57
2022/09/23 10:32:47;;;;;;;2.13;1.50;;;;;;;22.25;45.97;100334.41;4981888;23;20050;-65
2022/09/23 10:35:15;;;;;;;4.15;1.52;;;;;;;22.86;44.80;100337.16;4955392;28;20094;-65
2022/09/23 10:37:48;;;;;;;1.48;1.35;;;;;;;22.66;43.21;100329.56;4954496;28;20557;-65
2022/09/23 10:46:36;;;;;;;1.67;1.30;;;;;;;23.49;41.67;100325.69;4936231;29;20040;-65
2022/09/23 10:47:04;;;;;;;2.22;1.70;;;;;;;23.08;43.18;100320.88;4936136;29;20043;-65
2022/09/23 10:49:51;;;;;;;1.90;1.30;;;;;;;24.27;39.85;100322.59;4936161;29;20046;-65
2022/09/23 10:52:43;;;;;;;;;;;;;;;24.58;41.34;100312.72;4936306;29;20044;-62
2022/09/23 10:55:29;;;;;;;1.98;1.42;;;;;;;24.93;39.32;100319.44;4935803;29;19915;-65
2022/09/23 10:58:03;;;;;;;1.77;1.50;;;;;;;24.12;39.25;100311.56;4935996;29;20046;-63
2022/09/23 11:01:04;;;;;;;4.80;1.40;;;;;;;25.17;39.03;100298.84;4934377;29;20427;-65
2022/09/23 11:03:44;;;;;;;1.45;1.30;;;;;;;24.39;38.79;100312.34;4935853;29;20039;-63
2022/09/23 11:06:29;;;;;;;2.22;1.30;;;;;;;24.77;37.77;100311.19;4935568;29;20471;-65
2022/09/23 11:08:58;;;;;;;1.33;0.90;;;;;;;25.35;38.69;100313.84;4935778;29;20087;-65
2022/09/23 11:11:32;;;;;;;1.40;1.10;;;;;;;25.76;37.77;100306.59;4935465;29;20040;-64
2022/09/23 11:14:29;;;;;;;2.20;1.38;;;;;;;25.51;37.22;100301.91;4935895;29;20043;-64
2022/09/23 11:17:13;;;;;;;1.55;1.30;;;;;;;25.58;36.89;100294.28;4935793;29;20040;-65
2022/09/23 11:19:56;;;;;;;1.50;1.23;;;;;;;26.19;36.40;100285.28;4935729;29;20398;-65
2022/09/23 11:22:36;;;;;;;1.23;1.08;;;;;;;26.37;36.19;100300.25;4935287;29;20157;-65
2022/09/23 11:25:02;;;;;;;1.48;1.20;;;;;;;26.01;36.29;100303.03;4935330;29;20036;-65
2022/09/23 11:27:30;;;;;;;2.28;1.40;;;;;;;26.09;36.53;100298.94;4935397;29;20185;-65
2022/09/23 11:30:08;;;;;;;1.13;0.98;;;;;;;26.36;36.10;100296.72;4935349;29;20123;-65
2022/09/23 11:32:41;;;;;;;1.40;1.23;;;;;;;27.03;35.01;100286.38;4945117;29;20074;-65
2022/09/23 11:35:22;;;;;;;2.00;1.08;;;;;;;27.03;35.05;100289.13;4954415;29;20038;-66
2022/09/23 11:37:54;;;;;;;2.75;1.20;;;;;;;27.59;33.19;100288.81;4954336;28;20035;-65
2022/09/23 11:40:34;;;;;;;1.20;1.00;;;;;;;27.58;34.34;100279.78;4954226;29;20086;-64
2022/09/23 11:43:20;;;;;;;1.90;1.30;;;;;;;26.47;34.80;100279.25;4954498;28;20057;-65
2022/09/23 11:46:19;;;;;;;2.28;1.25;;;;;;;27.41;33.63;100271.16;4954232;28;20055;-65
2022/09/23 11:49:02;;;;;;;1.30;1.00;;;;;;;27.17;33.56;100265.56;4950724;29;20443;-66
2022/09/23 11:51:35;;;;;;;1.10;1.00;;;;;;;27.70;34.03;100267.66;4931718;29;20071;-65
2022/09/23 11:54:23;;;;;;;1.95;1.00;;;;;;;27.59;32.70;100261.44;4934411;29;20046;-64
2022/09/23 11:56:59;;;;;;;1.20;0.95;;;;;;;26.96;33.69;100261.28;4915831;29;20125;-64
2022/09/23 11:59:38;;;;;;;1.42;1.00;;;;;;;26.28;34.23;100255.50;4915937;29;20046;-63
2022/09/23 12:02:10;;;;;;;1.25;1.08;;;;;;;26.15;33.20;100248.72;4915465;29;20040;-64
2022/09/23 12:04:41;;;;;;;1.15;1.00;;;;;;;26.14;33.54;100247.06;4915765;29;20064;-64
2022/09/23 12:07:07;;;;;;;1.38;1.05;;;;;;;25.68;34.18;100247.09;4915618;29;20091;-63
2022/09/23 12:09:54;;;;;;;1.13;1.00;;;;;;;25.62;34.06;100240.81;4915588;29;20040;-63
2022/09/23 12:12:46;;;;;;;1.38;1.10;;;;;;;26.21;35.16;100239.41;4915378;29;20032;-64
2022/09/23 12:15:30;;;;;;;1.85;1.00;;;;;;;25.64;36.71;100241.38;4915901;29;20510;-64
2022/09/23 12:18:14;;;;;;;0.90;0.82;;;;;;;26.16;34.79;100232.06;4914978;29;20065;-64
2022/09/23 12:20:42;;;;;;;1.20;1.02;;;;;;;25.83;34.83;100229.94;4915063;29;20036;-63
2022/09/23 12:23:31;;;;;;;2.22;0.90;;;;;;;26.12;35.88;100225.50;4928071;29;20402;-64
2022/09/23 12:26:01;;;;;;;1.33;1.10;;;;;;;25.89;35.31;100223.38;4934656;29;20143;-64
2022/09/23 12:28:37;;;;;;;1.27;0.93;;;;;;;25.86;35.95;100226.66;4933147;29;20047;-64
2022/09/23 12:31:07;;;;;;;1.65;1.27;;;;;;;26.08;34.80;100219.00;4933978;29;20043;-64
2022/09/23 12:33:34;;;;;;;0.75;0.75;;;;;;;26.13;35.31;100229.88;4934322;29;20098;-64
2022/09/23 12:36:07;;;;;;;;;;;;;;;25.90;36.49;100225.03;4934705;29;20082;-63
2022/09/23 12:38:36;;;;;;;1.85;0.98;;;;;;;25.68;35.87;100217.91;4934227;29;20381;-64
2022/09/23 12:41:21;;;;;;;1.05;0.90;;;;;;;24.93;36.75;100219.44;4933852;29;20051;-63
2022/09/23 12:43:54;;;;;;;1.23;0.85;;;;;;;25.01;36.63;100213.47;4934041;29;20116;-63
2022/09/23 12:46:25;;;;;;;1.10;1.00;;;;;;;24.57;38.72;100219.31;4948781;29;20042;-63
2022/09/23 12:48:56;;;;;;;1.30;0.98;;;;;;;24.89;37.24;100218.34;4934298;29;20469;-63
2022/09/23 12:51:23;;;;;;;1.00;0.90;;;;;;;25.28;36.91;100209.72;4933835;29;20053;-64
2022/09/23 12:53:55;;;;;;;1.40;1.00;;;;;;;25.77;36.74;100218.22;4934242;29;20063;-64
2022/09/23 12:56:48;;;;;;;0.88;0.88;;;;;;;26.26;36.16;100212.09;4933917;29;20106;-64
2022/09/23 12:59:24;;;;;;;0.80;0.80;;;;;;;26.42;35.92;100213.72;4934105;29;20391;-64
2022/09/23 13:01:50;;;;;;;1.73;1.23;;;;;;;26.03;34.91;100221.72;4933701;29;20032;-64
2022/09/23 13:07:43;;;;;;;1.88;1.38;;;;;;;24.04;38.59;100207.59;4930241;29;20043;-63
2022/09/23 13:10:27;;;;;;;1.10;1.00;;;;;;;23.85;38.25;100216.44;4933911;29;20059;-62
2022/09/23 13:12:54;;;;;;;1.60;1.15;;;;;;;23.25;40.35;100211.03;4932867;29;20054;-63
2022/09/23 13:15:32;;;;;;;1.60;1.20;;;;;;;23.13;39.52;100209.56;4933902;29;20525;-62
2022/09/23 13:18:19;;;;;;;2.20;1.67;;;;;;;22.77;40.03;100209.16;4932711;29;20503;-63
2022/09/23 13:20:45;;;;;;;;;;;;;;;22.66;41.20;100204.69;4933852;29;20086;-64
2022/09/23 13:23:26;;;;;;;1.60;0.98;;;;;;;22.44;43.74;100204.72;4933987;29;19943;-63
2022/09/23 13:25:56;;;;;;;1.67;1.00;;;;;;;22.59;42.76;100202.16;4933902;29;20036;-63
2022/09/23 13:28:26;;;;;;;1.77;0.90;;;;;;;22.80;43.76;100199.69;4934268;29;20152;-63
2022/09/23 13:30:52;;;;;;;1.48;1.00;;;;;;;23.29;43.65;100195.06;4936985;29;20139;-63
2022/09/23 13:33:28;;;;;;;1.40;1.00;;;;;;;23.24;42.33;100193.09;4920499;29;20130;-62
2022/09/23 13:36:00;;;;;;;1.00;0.93;;;;;;;23.24;42.14;100193.09;4937368;29;20097;-63
2022/09/23 13:38:28;;;;;;;1.02;0.93;;;;;;;23.37;42.55;100188.31;4937477;29;20061;-63
2022/09/23 13:41:19;;;;;;;1.00;0.90;;;;;;;23.05;41.61;100185.59;4936981;29;20127;-63
2022/09/23 13:43:49;;;;;;;1.02;0.85;;;;;;;23.21;41.61;100187.34;4937260;29;20082;-63
2022/09/23 13:46:21;;;;;;;1.00;0.90;;;;;;;23.10;41.84;100183.75;4937195;29;20388;-63
2022/09/23 13:48:50;;;;;;;1.75;1.00;;;;;;;23.05;41.11;100175.53;4936951;29;20131;-63
2022/09/23 13:51:25;;;;;;;1.65;1.00;;;;;;;22.64;43.28;100168.84;4936690;29;20032;-63
2022/09/23 13:53:54;;;;;;;1.42;0.80;;;;;;;22.41;43.84;100170.72;4937022;29;20554;-62
2022/09/23 13:56:19;;;;;;;1.63;1.00;;;;;;;22.06;42.55;100168.38;4937043;29;20071;-63
2022/09/23 13:58:45;;;;;;;1.25;1.00;;;;;;;22.19;43.97;100167.22;4936998;29;20074;-61
2022/09/23 14:01:31;;;;;;;1.15;1.02;;;;;;;21.83;44.11;100161.25;4936410;29;20114;-62
2022/09/23 14:03:57;;;;;;;1.00;0.70;;;;;;;21.81;45.76;100160.69;4936897;29;20091;-62
2022/09/23 14:06:25;;;;;;;1.05;0.90;;;;;;;21.54;45.05;100149.72;4936894;29;20031;-61
2022/09/23 14:08:51;;;;;;;1.55;1.00;;;;;;;21.81;46.45;100149.84;4936791;29;20050;-64
2022/09/23 14:11:18;;;;;;;1.38;1.27;;;;;;;21.70;46.54;100145.34;4936448;29;20044;-59
2022/09/23 14:13:47;;;;;;;0.90;0.90;;;;;;;21.58;46.81;100139.19;4936690;29;20495;-61
2022/09/23 14:16:14;;;;;;;1.30;0.93;;;;;;;21.66;45.67;100139.59;4936740;29;20161;-59
2022/09/23 14:18:44;;;;;;;3.33;1.13;;;;;;;21.55;46.29;100134.28;4936675;29;20063;-59
2022/09/23 14:21:33;;;;;;;1.20;1.10;;;;;;;21.45;46.54;100128.69;4936156;29;20043;-60
2022/09/23 14:24:14;;;;;;;1.13;0.95;;;;;;;21.40;47.08;100127.56;4936468;29;20035;-63
2022/09/23 14:26:43;;;;;;;1.40;1.10;;;;;;;21.23;47.14;100132.13;4936428;29;20087;-63
2022/09/23 14:29:22;;;;;;;2.05;1.20;;;;;;;20.87;47.64;100128.00;4936488;29;20502;-59
2022/09/23 14:31:55;;;;;;;0.85;0.85;;;;;;;20.81;45.20;100124.38;4935945;29;20059;-63
2022/09/23 14:34:48;;;;;;;1.45;1.15;;;;;;;20.66;46.35;100136.78;4936304;29;20036;-61
2022/09/23 14:40:25;;;;;;;1.95;1.30;;;;;;;20.52;48.07;100133.56;4935212;29;20031;-60
2022/09/23 14:43:02;;;;;;;1.50;1.00;;;;;;;20.43;47.22;100133.09;4936089;29;20040;-62
2022/09/23 14:45:30;;;;;;;;;;;;;;;20.48;48.68;100137.81;4936620;29;20063;-61
2022/09/23 14:48:01;;;;;;;1.08;0.80;;;;;;;20.52;48.28;100130.84;4935989;29;19946;-62
2022/09/23 14:50:35;;;;;;;1.55;1.10;;;;;;;20.47;48.37;100123.44;4935775;29;20127;-58
2022/09/23 14:53:02;;;;;;;1.27;0.93;;;;;;;20.47;49.40;100130.75;4936031;29;20051;-59
2022/09/23 14:55:30;;;;;;;1.23;1.00;;;;;;;20.47;50.01;100125.34;4935877;29;20395;-59
2022/09/23 14:58:14;;;;;;;1.60;1.10;;;;;;;20.52;51.25;100126.25;4935869;29;20095;-62
2022/09/23 15:00:53;;;;;;;1.60;1.10;;;;;;;20.28;48.40;100125.50;4935469;29;20031;-63
2022/09/23 15:03:19;;;;;;;1.10;1.00;;;;;;;20.21;48.49;100119.41;4935831;29;20044;-61
2022/09/23 15:05:47;;;;;;;0.98;0.90;;;;;;;20.05;47.73;100120.13;4935747;29;20062;-49
2022/09/23 15:08:20;;;;;;;1.40;0.93;;;;;;;20.09;47.39;100120.50;4935635;29;20090;-63
2022/09/23 15:10:45;;;;;;;1.55;1.00;;;;;;;20.02;47.99;100115.22;4935380;29;20127;-61
2022/09/23 15:13:18;;;;;;;1.98;1.17;;;;;;;19.92;47.51;100110.41;4935576;29;20473;-63
2022/09/23 15:15:44;;;;;;;0.95;0.80;;;;;;;19.84;48.16;100129.69;4934377;29;20071;-62
2022/09/23 15:18:21;;;;;;;1.55;1.23;;;;;;;19.76;48.32;100127.38;4935520;29;20071;-52
2022/09/23 15:20:59;;;;;;;1.17;1.08;;;;;;;19.71;49.21;100121.84;4935333;29;20066;-51
2022/09/23 15:23:33;;;;;;;1.17;1.00;;;;;;;19.81;50.16;100118.53;4935513;29;20070;-50
2022/09/23 15:26:04;;;;;;;1.40;1.23;;;;;;;19.74;50.42;100126.75;4935228;29;20071;-50
2022/09/23 15:28:29;;;;;;;1.20;1.00;;;;;;;19.69;51.06;100118.53;4935369;29;20089;-63
2022/09/23 15:30:55;;;;;;;1.27;0.93;;;;;;;19.61;50.80;100111.59;4934791;29;20171;-63
2022/09/23 15:33:26;;;;;;;2.55;1.00;;;;;;;19.45;51.54;100113.13;4935427;29;20039;-62
2022/09/23 15:35:53;;;;;;;1.10;1.00;;;;;;;19.48;50.51;100117.22;4934276;29;20044;-61
2022/09/23 15:38:20;;;;;;;3.15;1.33;;;;;;;19.35;50.13;100104.75;4935238;29;20095;-62
2022/09/23 15:40:45;;;;;;;1.77;1.00;;;;;;;19.27;50.81;100112.41;4942300;29;20042;-61
2022/09/23 15:43:17;;;;;;;2.90;1.20;;;;;;;19.22;51.41;100111.22;4954238;28;20406;-62
2022/09/23 15:45:49;;;;;;;1.30;1.00;;;;;;;19.15;50.35;100105.09;4953121;29;20540;-63
2022/09/23 15:48:18;;;;;;;1.33;1.02;;;;;;;19.14;50.96;100102.63;4954191;28;20039;-61
2022/09/23 15:50:45;;;;;;;1.38;0.98;;;;;;;19.11;51.37;100101.25;4953954;28;20418;-63
2022/09/23 15:53:16;;;;;;;1.55;1.20;;;;;;;19.02;52.25;100093.69;4953319;28;20110;-61
2022/09/23 15:55:42;;;;;;;1.00;0.90;;;;;;;18.88;52.36;100107.41;4968832;28;20054;-59
2022/09/23 15:58:08;;;;;;;1.50;0.93;;;;;;;18.81;52.44;100103.16;4954310;28;20110;-60
2022/09/23 16:00:35;;;;;;;3.53;1.30;;;;;;;18.85;53.66;100110.56;4954000;29;20035;-59
2022/09/23 16:03:00;;;;;;;2.22;1.27;;;;;;;18.84;54.72;100105.38;4954408;28;20134;-59
2022/09/23 16:05:35;;;;;;;1.52;1.20;;;;;;;18.84;54.57;100102.69;4954009;28;20126;-58
2022/09/23 16:08:02;;;;;;;1.98;0.98;;;;;;;18.84;54.88;100097.28;4953848;28;20176;-60
2022/09/23 16:10:28;;;;;;;1.60;1.15;;;;;;;18.94;54.13;100097.56;4953579;28;20051;-62
2022/09/23 16:12:56;;;;;;;1.08;0.90;;;;;;;18.84;54.76;100094.59;4953642;28;20058;-60